Harahan, Louisiana
Current Conditions -  °F | °C
As of 8:53 AM on Thursday 23 Oct 2014 (Local Time) from KMSY Reporting Station
Few Clouds Few Clouds  
Wind Chill: 65°   Ceiling: Unl
Heat Index: 65°   Visibility: 10mi
Dew Point: 51°   Wind: 8mph
Humidity: 61%   Direction: 60°ENE
Pressure: 30.11"   Gusts: NA
Location:  29.9536°N, 90.2034°W
Report Text: KMSY 231353Z 06007KT 10SM FEW150 FEW250 18/11 A3011 RMK AO2 SLP198 T01830106
Loading
Personal Weather Stations






























Interactive Weather Map
Tropical Storm Tracking
New forecast layout! Learn more

10-Day Weather Forecast

Advertisements
Track Severe Weather on mobile